sensor_id;sensor_type;location;lat;lon;timestamp;pressure;altitude;pressure_sealevel;temperature
60936;BMP280;46804;51.786;19.520;2023-04-24T00:01:28;157378.59;;;12.49
60936;BMP280;46804;51.786;19.520;2023-04-24T00:05:29;157368.31;;;12.45
60936;BMP280;46804;51.786;19.520;2023-04-24T00:09:30;157369.56;;;12.46
60936;BMP280;46804;51.786;19.520;2023-04-24T00:13:31;157386.28;;;12.52
60936;BMP280;46804;51.786;19.520;2023-04-24T00:17:32;157374.72;;;12.48
60936;BMP280;46804;51.786;19.520;2023-04-24T00:21:32;157374.72;;;12.48
60936;BMP280;46804;51.786;19.520;2023-04-24T00:25:34;157373.44;;;12.47
60936;BMP280;46804;51.786;19.520;2023-04-24T00:29:34;157379.88;;;12.50
60936;BMP280;46804;51.786;19.520;2023-04-24T00:33:35;157356.75;;;12.41
60936;BMP280;46804;51.786;19.520;2023-04-24T00:37:36;157351.59;;;12.39
60936;BMP280;46804;51.786;19.520;2023-04-24T00:41:37;157337.47;;;12.33
60936;BMP280;46804;51.786;19.520;2023-04-24T00:45:37;157336.16;;;12.33
60936;BMP280;46804;51.786;19.520;2023-04-24T00:49:38;157316.91;;;12.25
60936;BMP280;46804;51.786;19.520;2023-04-24T00:53:39;157316.91;;;12.25
60936;BMP280;46804;51.786;19.520;2023-04-24T00:57:40;157316.91;;;12.25
60936;BMP280;46804;51.786;19.520;2023-04-24T01:01:41;157309.22;;;12.22
60936;BMP280;46804;51.786;19.520;2023-04-24T01:05:42;157306.63;;;12.21
60936;BMP280;46804;51.786;19.520;2023-04-24T01:09:45;157313.03;;;12.24
60936;BMP280;46804;51.786;19.520;2023-04-24T01:13:48;157327.19;;;12.29
60936;BMP280;46804;51.786;19.520;2023-04-24T01:17:49;157345.16;;;12.36
60936;BMP280;46804;51.786;19.520;2023-04-24T01:21:53;157337.47;;;12.33
60936;BMP280;46804;51.786;19.520;2023-04-24T01:25:54;157342.56;;;12.35
60936;BMP280;46804;51.786;19.520;2023-04-24T01:29:55;157343.91;;;12.36
60936;BMP280;46804;51.786;19.520;2023-04-24T01:33:56;157343.91;;;12.36
60936;BMP280;46804;51.786;19.520;2023-04-24T01:37:57;157370.84;;;12.46
60936;BMP280;46804;51.786;19.520;2023-04-24T01:41:57;157400.44;;;12.57
60936;BMP280;46804;51.786;19.520;2023-04-24T01:45:58;157409.41;;;12.61
60936;BMP280;46804;51.786;19.520;2023-04-24T01:49:59;157445.44;;;12.75
60936;BMP280;46804;51.786;19.520;2023-04-24T01:53:59;157442.84;;;12.74
60936;BMP280;46804;51.786;19.520;2023-04-24T01:58:01;157445.44;;;12.75
60936;BMP280;46804;51.786;19.520;2023-04-24T02:02:03;157460.88;;;12.81
60936;BMP280;46804;51.786;19.520;2023-04-24T02:06:03;157459.59;;;12.80
60936;BMP280;46804;51.786;19.520;2023-04-24T02:10:04;157475.03;;;12.86
60936;BMP280;46804;51.786;19.520;2023-04-24T02:14:05;157449.25;;;12.76
60936;BMP280;46804;51.786;19.520;2023-04-24T02:18:06;157433.88;;;12.70
60936;BMP280;46804;51.786;19.520;2023-04-24T02:22:07;157412.00;;;12.62
60936;BMP280;46804;51.786;19.520;2023-04-24T02:26:08;157422.31;;;12.66
60936;BMP280;46804;51.786;19.520;2023-04-24T02:30:09;157405.59;;;12.59
60936;BMP280;46804;51.786;19.520;2023-04-24T02:34:10;157391.44;;;12.54
60936;BMP280;46804;51.786;19.520;2023-04-24T02:38:11;157391.44;;;12.54
60936;BMP280;46804;51.786;19.520;2023-04-24T02:42:11;157376.00;;;12.48
60936;BMP280;46804;51.786;19.520;2023-04-24T02:46:12;157370.84;;;12.46
60936;BMP280;46804;51.786;19.520;2023-04-24T02:50:13;157364.44;;;12.44
60936;BMP280;46804;51.786;19.520;2023-04-24T02:54:14;157340.03;;;12.34
60936;BMP280;46804;51.786;19.520;2023-04-24T02:58:14;157329.75;;;12.30
60936;BMP280;46804;51.786;19.520;2023-04-24T03:02:15;157323.31;;;12.28
60936;BMP280;46804;51.786;19.520;2023-04-24T03:06:16;157306.63;;;12.21
60936;BMP280;46804;51.786;19.520;2023-04-24T03:10:17;157287.38;;;12.14
60936;BMP280;46804;51.786;19.520;2023-04-24T03:14:17;157273.22;;;12.09
60936;BMP280;46804;51.786;19.520;2023-04-24T03:18:18;157270.66;;;12.08
60936;BMP280;46804;51.786;19.520;2023-04-24T03:22:19;157260.38;;;12.04
60936;BMP280;46804;51.786;19.520;2023-04-24T03:26:19;157256.50;;;12.02
60936;BMP280;46804;51.786;19.520;2023-04-24T03:30:20;157244.94;;;11.98
60936;BMP280;46804;51.786;19.520;2023-04-24T03:34:21;157237.25;;;11.95
60936;BMP280;46804;51.786;19.520;2023-04-24T03:38:22;157238.53;;;11.95
60936;BMP280;46804;51.786;19.520;2023-04-24T03:42:22;157252.69;;;12.01
60936;BMP280;46804;51.786;19.520;2023-04-24T03:46:23;157275.81;;;12.10
60936;BMP280;46804;51.786;19.520;2023-04-24T03:50:24;157278.34;;;12.11
60936;BMP280;46804;51.786;19.520;2023-04-24T03:54:27;157289.91;;;12.15
60936;BMP280;46804;51.786;19.520;2023-04-24T03:58:27;157315.63;;;12.25
60936;BMP280;46804;51.786;19.520;2023-04-24T04:02:28;157315.63;;;12.25
60936;BMP280;46804;51.786;19.520;2023-04-24T04:06:29;157322.03;;;12.27
60936;BMP280;46804;51.786;19.520;2023-04-24T04:10:31;157332.34;;;12.31
60936;BMP280;46804;51.786;19.520;2023-04-24T04:14:31;157356.75;;;12.41
60936;BMP280;46804;51.786;19.520;2023-04-24T04:18:32;157363.16;;;12.43
60936;BMP280;46804;51.786;19.520;2023-04-24T04:22:33;157370.84;;;12.46
60936;BMP280;46804;51.786;19.520;2023-04-24T04:26:34;157381.16;;;12.50
60936;BMP280;46804;51.786;19.520;2023-04-24T04:30:35;157395.31;;;12.55
60936;BMP280;46804;51.786;19.520;2023-04-24T04:34:38;157388.88;;;12.53
60936;BMP280;46804;51.786;19.520;2023-04-24T04:38:40;157406.88;;;12.60
60936;BMP280;46804;51.786;19.520;2023-04-24T04:42:41;157404.28;;;12.59
60936;BMP280;46804;51.786;19.520;2023-04-24T04:46:43;157426.13;;;12.67
60936;BMP280;46804;51.786;19.520;2023-04-24T04:50:44;157458.31;;;12.80
60936;BMP280;46804;51.786;19.520;2023-04-24T04:54:45;157489.16;;;12.91
60936;BMP280;46804;51.786;19.520;2023-04-24T04:58:46;157516.16;;;13.02
60936;BMP280;46804;51.786;19.520;2023-04-24T05:02:47;157536.75;;;13.10
60936;BMP280;46804;51.786;19.520;2023-04-24T05:06:48;157553.47;;;13.16
60936;BMP280;46804;51.786;19.520;2023-04-24T05:10:48;157585.59;;;13.28
60936;BMP280;46804;51.786;19.520;2023-04-24T05:14:49;157611.31;;;13.38
60936;BMP280;46804;51.786;19.520;2023-04-24T05:18:50;157644.78;;;13.51
60936;BMP280;46804;51.786;19.520;2023-04-24T05:22:50;157702.63;;;13.73
60936;BMP280;46804;51.786;19.520;2023-04-24T05:26:51;157761.78;;;13.96
60936;BMP280;46804;51.786;19.520;2023-04-24T05:30:52;157833.91;;;14.24
60936;BMP280;46804;51.786;19.520;2023-04-24T05:34:53;157880.22;;;14.41
60936;BMP280;46804;51.786;19.520;2023-04-24T05:38:54;157936.88;;;14.63
60936;BMP280;46804;51.786;19.520;2023-04-24T05:42:54;157998.66;;;14.87
60936;BMP280;46804;51.786;19.520;2023-04-24T05:46:55;158070.81;;;15.14
60936;BMP280;46804;51.786;19.520;2023-04-24T05:50:57;158145.50;;;15.43
60936;BMP280;46804;51.786;19.520;2023-04-24T05:54:57;158207.34;;;15.66
60936;BMP280;46804;51.786;19.520;2023-04-24T05:58:58;158269.16;;;15.90
60936;BMP280;46804;51.786;19.520;2023-04-24T06:03:00;158333.56;;;16.15
60936;BMP280;46804;51.786;19.520;2023-04-24T06:07:00;158369.69;;;16.29
60936;BMP280;46804;51.786;19.520;2023-04-24T06:11:01;158450.91;;;16.60
60936;BMP280;46804;51.786;19.520;2023-04-24T06:15:02;158521.78;;;16.87
60936;BMP280;46804;51.786;19.520;2023-04-24T06:19:03;158622.41;;;17.25
60936;BMP280;46804;51.786;19.520;2023-04-24T06:23:04;158648.19;;;17.35
60936;BMP280;46804;51.786;19.520;2023-04-24T06:27:04;158730.75;;;17.67
60936;BMP280;46804;51.786;19.520;2023-04-24T06:31:05;158841.72;;;18.09
60936;BMP280;46804;51.786;19.520;2023-04-24T06:35:06;158920.44;;;18.39
60936;BMP280;46804;51.786;19.520;2023-04-24T06:39:08;159014.69;;;18.75
60936;BMP280;46804;51.786;19.520;2023-04-24T06:43:09;159123.16;;;19.16
60936;BMP280;46804;51.786;19.520;2023-04-24T06:47:11;159240.66;;;19.61
60936;BMP280;46804;51.786;19.520;2023-04-24T06:51:13;159236.81;;;19.60
60936;BMP280;46804;51.786;19.520;2023-04-24T06:55:14;159378.91;;;20.14
60936;BMP280;46804;51.786;19.520;2023-04-24T06:59:17;159475.81;;;20.51
60936;BMP280;46804;51.786;19.520;2023-04-24T07:03:17;159637.47;;;21.12
60936;BMP280;46804;51.786;19.520;2023-04-24T07:07:18;159479.69;;;20.52
60936;BMP280;46804;51.786;19.520;2023-04-24T07:11:19;159345.34;;;20.01
60936;BMP280;46804;51.786;19.520;2023-04-24T07:15:20;159417.66;;;20.29
60936;BMP280;46804;51.786;19.520;2023-04-24T07:19:21;159367.28;;;20.09
60936;BMP280;46804;51.786;19.520;2023-04-24T07:23:21;159515.91;;;20.66
60936;BMP280;46804;51.786;19.520;2023-04-24T07:27:22;159610.31;;;21.02
60936;BMP280;46804;51.786;19.520;2023-04-24T07:31:23;159762.94;;;21.60
60936;BMP280;46804;51.786;19.520;2023-04-24T07:35:24;159770.66;;;21.63
60936;BMP280;46804;51.786;19.520;2023-04-24T07:39:28;159911.72;;;22.17
60936;BMP280;46804;51.786;19.520;2023-04-24T07:43:29;160096.78;;;22.87
60936;BMP280;46804;51.786;19.520;2023-04-24T07:47:30;160074.72;;;22.79
60936;BMP280;46804;51.786;19.520;2023-04-24T07:51:31;160078.63;;;22.81
60936;BMP280;46804;51.786;19.520;2023-04-24T07:55:35;160006.16;;;22.53
60936;BMP280;46804;51.786;19.520;2023-04-24T07:59:36;160142.09;;;23.05
60936;BMP280;46804;51.786;19.520;2023-04-24T08:03:36;160092.94;;;22.86
60936;BMP280;46804;51.786;19.520;2023-04-24T08:07:38;160074.72;;;22.79
60936;BMP280;46804;51.786;19.520;2023-04-24T08:11:38;160074.72;;;22.79
60936;BMP280;46804;51.786;19.520;2023-04-24T08:15:39;159945.38;;;22.30
60936;BMP280;46804;51.786;19.520;2023-04-24T08:19:40;160037.22;;;22.65
60936;BMP280;46804;51.786;19.520;2023-04-24T08:23:47;160055.34;;;22.72
60936;BMP280;46804;51.786;19.520;2023-04-24T08:27:48;159893.56;;;22.10
60936;BMP280;46804;51.786;19.520;2023-04-24T08:31:49;160086.38;;;22.83
60936;BMP280;46804;51.786;19.520;2023-04-24T08:35:50;160296.19;;;23.63
60936;BMP280;46804;51.786;19.520;2023-04-24T08:39:51;160482.78;;;24.34
60936;BMP280;46804;51.786;19.520;2023-04-24T08:43:52;160463.31;;;24.27
60936;BMP280;46804;51.786;19.520;2023-04-24T08:47:53;160451.66;;;24.22
60936;BMP280;46804;51.786;19.520;2023-04-24T08:51:55;160437.38;;;24.17
60936;BMP280;46804;51.786;19.520;2023-04-24T08:55:55;160324.69;;;23.74
60936;BMP280;46804;51.786;19.520;2023-04-24T08:59:58;160607.09;;;24.82
60936;BMP280;46804;51.786;19.520;2023-04-24T09:04:02;155446.41;;;25.86
60936;BMP280;46804;51.786;19.520;2023-04-24T09:08:04;160297.72;;;25.36
60936;BMP280;46804;51.786;19.520;2023-04-24T09:12:05;158886.78;;;25.55
60936;BMP280;46804;51.786;19.520;2023-04-24T09:16:06;160244.91;;;25.36
60936;BMP280;46804;51.786;19.520;2023-04-24T09:20:07;160629.19;;;24.90
60936;BMP280;46804;51.786;19.520;2023-04-24T09:24:15;160576.03;;;24.70
60936;BMP280;46804;51.786;19.520;2023-04-24T09:28:18;150425.84;;;26.16
60936;BMP280;46804;51.786;19.520;2023-04-24T09:32:20;154755.28;;;25.88
60936;BMP280;46804;51.786;19.520;2023-04-24T09:36:29;159868.47;;;25.41
60936;BMP280;46804;51.786;19.520;2023-04-24T09:40:34;150502.34;;;26.15
60936;BMP280;46804;51.786;19.520;2023-04-24T09:44:35;142940.16;;;26.60
60936;BMP280;46804;51.786;19.520;2023-04-24T09:48:37;129332.84;;;27.50
60936;BMP280;46804;51.786;19.520;2023-04-24T09:52:45;112985.84;;;28.70
60936;BMP280;46804;51.786;19.520;2023-04-24T09:56:47;134914.75;;;27.14
60936;BMP280;46804;51.786;19.520;2023-04-24T10:00:48;128636.28;;;27.55
60936;BMP280;46804;51.786;19.520;2023-04-24T10:04:56;129331.81;;;27.50
60936;BMP280;46804;51.786;19.520;2023-04-24T10:08:57;130728.22;;;27.41
60936;BMP280;46804;51.786;19.520;2023-04-24T10:12:59;128635.28;;;27.55
60936;BMP280;46804;51.786;19.520;2023-04-24T10:17:00;110209.44;;;28.92
60936;BMP280;46804;51.786;19.520;2023-04-24T10:21:01;116458.44;;;28.43
60936;BMP280;46804;51.786;19.520;2023-04-24T10:25:04;126899.25;;;27.69
60936;BMP280;46804;51.786;19.520;2023-04-24T10:29:05;116805.28;;;28.40
60936;BMP280;46804;51.786;19.520;2023-04-24T10:33:10;87339.84;;;30.81
60936;BMP280;46804;51.786;19.520;2023-04-24T10:37:12;101884.44;;;29.59
60936;BMP280;46804;51.786;19.520;2023-04-24T10:41:14;129681.16;;;27.48
60936;BMP280;46804;51.786;19.520;2023-04-24T10:45:21;131427.00;;;27.37
60936;BMP280;46804;51.786;19.520;2023-04-24T10:49:29;144690.41;;;26.50
60936;BMP280;46804;51.786;19.520;2023-04-24T10:53:30;135958.25;;;27.06
60936;BMP280;46804;51.786;19.520;2023-04-24T10:57:31;130383.03;;;27.45
60936;BMP280;46804;51.786;19.520;2023-04-24T11:01:32;137351.50;;;26.96
60936;BMP280;46804;51.786;19.520;2023-04-24T11:05:51;126546.97;;;27.70
60936;BMP280;46804;51.786;19.520;2023-04-24T11:09:58;125852.69;;;27.76
60936;BMP280;46804;51.786;19.520;2023-04-24T11:18:00;115416.06;;;28.51
60936;BMP280;46804;51.786;19.520;2023-04-24T11:22:13;142239.06;;;26.63
60936;BMP280;46804;51.786;19.520;2023-04-24T11:26:21;126540.91;;;27.67
60936;BMP280;46804;51.786;19.520;2023-04-24T11:30:29;126199.81;;;27.73
60936;BMP280;46804;51.786;19.520;2023-04-24T11:34:31;140494.06;;;26.75
60936;BMP280;46804;51.786;19.520;2023-04-24T11:38:32;140146.47;;;26.78
60936;BMP280;46804;51.786;19.520;2023-04-24T11:42:34;132819.56;;;27.27
60936;BMP280;46804;51.786;19.520;2023-04-24T11:46:36;128288.03;;;27.58
60936;BMP280;46804;51.786;19.520;2023-04-24T11:50:38;118898.03;;;28.28
60936;BMP280;46804;51.786;19.520;2023-04-24T11:54:47;130027.38;;;27.44
60936;BMP280;46804;51.786;19.520;2023-04-24T11:58:48;115412.34;;;28.49
60936;BMP280;46804;51.786;19.520;2023-04-24T12:02:49;140843.94;;;26.73
60936;BMP280;46804;51.786;19.520;2023-04-24T12:07:03;128636.28;;;27.55
60936;BMP280;46804;51.786;19.520;2023-04-24T12:11:06;143989.13;;;26.54
60936;BMP280;46804;51.786;19.520;2023-04-24T12:15:08;134208.06;;;27.15
60936;BMP280;46804;51.786;19.520;2023-04-24T12:19:09;133515.44;;;27.22
60936;BMP280;46804;51.786;19.520;2023-04-24T12:23:10;135957.13;;;27.05
60936;BMP280;46804;51.786;19.520;2023-04-24T12:27:19;155896.41;;;25.81
60936;BMP280;46804;51.786;19.520;2023-04-24T12:31:20;151358.41;;;26.08
60936;BMP280;46804;51.786;19.520;2023-04-24T12:35:23;151125.81;;;26.10
60936;BMP280;46804;51.786;19.520;2023-04-24T12:39:24;142587.91;;;26.61
60936;BMP280;46804;51.786;19.520;2023-04-24T12:43:27;142936.75;;;26.59
60936;BMP280;46804;51.786;19.520;2023-04-24T12:47:28;148968.53;;;26.21
60936;BMP280;46804;51.786;19.520;2023-04-24T12:51:28;152750.13;;;26.01
60936;BMP280;46804;51.786;19.520;2023-04-24T12:55:29;146783.06;;;26.35
60936;BMP280;46804;51.786;19.520;2023-04-24T12:59:30;137700.13;;;26.93
60936;BMP280;46804;51.786;19.520;2023-04-24T13:03:31;129678.03;;;27.46
60936;BMP280;46804;51.786;19.520;2023-04-24T13:07:32;151308.78;;;26.07
60936;BMP280;46804;51.786;19.520;2023-04-24T13:11:33;153330.47;;;25.97
60936;BMP280;46804;51.786;19.520;2023-04-24T13:15:34;152472.75;;;26.00
60936;BMP280;46804;51.786;19.520;2023-04-24T13:19:36;140490.66;;;26.74
60936;BMP280;46804;51.786;19.520;2023-04-24T13:23:37;150602.59;;;26.14
60936;BMP280;46804;51.786;19.520;2023-04-24T13:27:38;160712.16;;;25.22
60936;BMP280;46804;51.786;19.520;2023-04-24T13:31:39;160541.06;;;24.56
60936;BMP280;46804;51.786;19.520;2023-04-24T13:35:40;160625.34;;;24.89
60936;BMP280;46804;51.786;19.520;2023-04-24T13:39:41;160529.41;;;24.52
60936;BMP280;46804;51.786;19.520;2023-04-24T13:43:42;160349.28;;;23.84
60936;BMP280;46804;51.786;19.520;2023-04-24T13:47:43;160327.31;;;23.75
60936;BMP280;46804;51.786;19.520;2023-04-24T13:51:44;160300.09;;;23.65
60936;BMP280;46804;51.786;19.520;2023-04-24T13:55:46;160169.28;;;23.15
60936;BMP280;46804;51.786;19.520;2023-04-24T13:59:46;160219.78;;;23.34
60936;BMP280;46804;51.786;19.520;2023-04-24T14:03:47;160168.00;;;23.15
60936;BMP280;46804;51.786;19.520;2023-04-24T14:07:48;160157.66;;;23.11
60936;BMP280;46804;51.786;19.520;2023-04-24T14:11:49;160142.09;;;23.05
60936;BMP280;46804;51.786;19.520;2023-04-24T14:15:51;160091.59;;;22.85
60936;BMP280;46804;51.786;19.520;2023-04-24T14:19:53;160043.69;;;22.67
60936;BMP280;46804;51.786;19.520;2023-04-24T14:23:56;160010.03;;;22.54
60936;BMP280;46804;51.786;19.520;2023-04-24T14:27:57;160013.94;;;22.56
60936;BMP280;46804;51.786;19.520;2023-04-24T14:31:57;159862.50;;;21.98
60936;BMP280;46804;51.786;19.520;2023-04-24T14:35:58;159840.50;;;21.90
60936;BMP280;46804;51.786;19.520;2023-04-24T14:39:59;159902.66;;;22.14
60936;BMP280;46804;51.786;19.520;2023-04-24T14:44:00;159903.94;;;22.14
60936;BMP280;46804;51.786;19.520;2023-04-24T14:48:00;159945.38;;;22.30
60936;BMP280;46804;51.786;19.520;2023-04-24T14:52:01;159931.09;;;22.24
60936;BMP280;46804;51.786;19.520;2023-04-24T14:56:03;159893.56;;;22.10
60936;BMP280;46804;51.786;19.520;2023-04-24T15:00:05;159920.75;;;22.20
60936;BMP280;46804;51.786;19.520;2023-04-24T15:04:08;159933.72;;;22.25
60936;BMP280;46804;51.786;19.520;2023-04-24T15:08:09;159907.81;;;22.15
60936;BMP280;46804;51.786;19.520;2023-04-24T15:12:10;159852.16;;;21.94
60936;BMP280;46804;51.786;19.520;2023-04-24T15:16:12;159647.81;;;21.16
60936;BMP280;46804;51.786;19.520;2023-04-24T15:20:13;159647.81;;;21.16
60936;BMP280;46804;51.786;19.520;2023-04-24T15:24:14;159647.81;;;21.16
60936;BMP280;46804;51.786;19.520;2023-04-24T15:28:14;159700.88;;;21.37
60936;BMP280;46804;51.786;19.520;2023-04-24T15:32:16;159822.41;;;21.83
60936;BMP280;46804;51.786;19.520;2023-04-24T15:36:18;159815.94;;;21.80
60936;BMP280;46804;51.786;19.520;2023-04-24T15:40:19;159840.50;;;21.90
60936;BMP280;46804;51.786;19.520;2023-04-24T15:44:21;159907.81;;;22.15
60936;BMP280;46804;51.786;19.520;2023-04-24T15:48:22;159774.56;;;21.65
60936;BMP280;46804;51.786;19.520;2023-04-24T15:52:22;159699.53;;;21.36
60936;BMP280;46804;51.786;19.520;2023-04-24T15:56:23;159385.41;;;20.16
60936;BMP280;46804;51.786;19.520;2023-04-24T16:00:24;159207.06;;;19.48
60936;BMP280;46804;51.786;19.520;2023-04-24T16:04:25;159319.50;;;19.91
60936;BMP280;46804;51.786;19.520;2023-04-24T16:08:26;159270.34;;;19.73
60936;BMP280;46804;51.786;19.520;2023-04-24T16:12:26;159263.88;;;19.70
60936;BMP280;46804;51.786;19.520;2023-04-24T16:16:27;159145.06;;;19.25
60936;BMP280;46804;51.786;19.520;2023-04-24T16:20:28;159208.41;;;19.49
60936;BMP280;46804;51.786;19.520;2023-04-24T16:24:29;159083.13;;;19.01
60936;BMP280;46804;51.786;19.520;2023-04-24T16:28:30;159111.56;;;19.12
60936;BMP280;46804;51.786;19.520;2023-04-24T16:32:31;158957.88;;;18.53
60936;BMP280;46804;51.786;19.520;2023-04-24T16:36:31;158935.94;;;18.45
60936;BMP280;46804;51.786;19.520;2023-04-24T16:40:32;158864.94;;;18.18
60936;BMP280;46804;51.786;19.520;2023-04-24T16:44:33;158883.00;;;18.25
60936;BMP280;46804;51.786;19.520;2023-04-24T16:48:34;158875.28;;;18.22
60936;BMP280;46804;51.786;19.520;2023-04-24T16:52:35;158795.22;;;17.91
60936;BMP280;46804;51.786;19.520;2023-04-24T16:56:35;158655.94;;;17.38
60936;BMP280;46804;51.786;19.520;2023-04-24T17:00:36;158643.03;;;17.33
60936;BMP280;46804;51.786;19.520;2023-04-24T17:04:37;158597.88;;;17.16
60936;BMP280;46804;51.786;19.520;2023-04-24T17:08:38;158545.00;;;16.96
60936;BMP280;46804;51.786;19.520;2023-04-24T17:12:39;158502.47;;;16.79
60936;BMP280;46804;51.786;19.520;2023-04-24T17:16:40;158529.50;;;16.90
60936;BMP280;46804;51.786;19.520;2023-04-24T17:20:41;158459.91;;;16.63
60936;BMP280;46804;51.786;19.520;2023-04-24T17:24:42;158403.19;;;16.41
60936;BMP280;46804;51.786;19.520;2023-04-24T17:28:42;158361.97;;;16.26
60936;BMP280;46804;51.786;19.520;2023-04-24T17:32:43;158371.00;;;16.29
60936;BMP280;46804;51.786;19.520;2023-04-24T17:36:44;158300.06;;;16.02
60936;BMP280;46804;51.786;19.520;2023-04-24T17:40:45;158256.25;;;15.85
60936;BMP280;46804;51.786;19.520;2023-04-24T17:44:45;158235.66;;;15.77
60936;BMP280;46804;51.786;19.520;2023-04-24T17:48:46;158215.03;;;15.69
60936;BMP280;46804;51.786;19.520;2023-04-24T17:52:47;158115.88;;;15.31
60936;BMP280;46804;51.786;19.520;2023-04-24T17:56:48;158132.63;;;15.38
60936;BMP280;46804;51.786;19.520;2023-04-24T18:00:49;158092.72;;;15.23
60936;BMP280;46804;51.786;19.520;2023-04-24T18:04:51;158028.25;;;14.98
60936;BMP280;46804;51.786;19.520;2023-04-24T18:08:51;158034.69;;;15.00
60936;BMP280;46804;51.786;19.520;2023-04-24T18:12:52;158046.28;;;15.05
60936;BMP280;46804;51.786;19.520;2023-04-24T18:16:53;158039.84;;;15.02
60936;BMP280;46804;51.786;19.520;2023-04-24T18:20:54;158039.84;;;15.02
60936;BMP280;46804;51.786;19.520;2023-04-24T18:24:55;158014.13;;;14.93
60936;BMP280;46804;51.786;19.520;2023-04-24T18:28:55;158011.50;;;14.92
60936;BMP280;46804;51.786;19.520;2023-04-24T18:32:56;157971.63;;;14.76
60936;BMP280;46804;51.786;19.520;2023-04-24T18:36:57;157951.03;;;14.68
60936;BMP280;46804;51.786;19.520;2023-04-24T18:40:57;157940.75;;;14.64
60936;BMP280;46804;51.786;19.520;2023-04-24T18:44:58;157931.72;;;14.61
60936;BMP280;46804;51.786;19.520;2023-04-24T18:49:00;157903.38;;;14.50
60936;BMP280;46804;51.786;19.520;2023-04-24T18:53:01;157875.09;;;14.39
60936;BMP280;46804;51.786;19.520;2023-04-24T18:57:02;157845.50;;;14.28
60936;BMP280;46804;51.786;19.520;2023-04-24T19:01:03;157851.91;;;14.30
60936;BMP280;46804;51.786;19.520;2023-04-24T19:05:03;157845.50;;;14.28
60936;BMP280;46804;51.786;19.520;2023-04-24T19:09:05;157849.38;;;14.29
60936;BMP280;46804;51.786;19.520;2023-04-24T19:13:05;157822.34;;;14.19
60936;BMP280;46804;51.786;19.520;2023-04-24T19:17:06;157795.31;;;14.09
60936;BMP280;46804;51.786;19.520;2023-04-24T19:21:10;157788.88;;;14.06
60936;BMP280;46804;51.786;19.520;2023-04-24T19:25:10;157794.03;;;14.08
60936;BMP280;46804;51.786;19.520;2023-04-24T19:29:12;157766.94;;;13.98
60936;BMP280;46804;51.786;19.520;2023-04-24T19:33:12;157769.59;;;13.99
60936;BMP280;46804;51.786;19.520;2023-04-24T19:37:13;157769.59;;;13.99
60936;BMP280;46804;51.786;19.520;2023-04-24T19:41:14;157776.03;;;14.01
60936;BMP280;46804;51.786;19.520;2023-04-24T19:45:15;157781.16;;;14.03
60936;BMP280;46804;51.786;19.520;2023-04-24T19:49:16;157759.25;;;13.95
60936;BMP280;46804;51.786;19.520;2023-04-24T19:53:17;157768.22;;;13.98
60936;BMP280;46804;51.786;19.520;2023-04-24T19:57:17;157768.22;;;13.98
60936;BMP280;46804;51.786;19.520;2023-04-24T20:01:19;157734.81;;;13.86
60936;BMP280;46804;51.786;19.520;2023-04-24T20:05:20;157743.78;;;13.89
60936;BMP280;46804;51.786;19.520;2023-04-24T20:09:20;157729.66;;;13.84
60936;BMP280;46804;51.786;19.520;2023-04-24T20:13:25;157779.91;;;14.03
60936;BMP280;46804;51.786;19.520;2023-04-24T20:17:27;157754.09;;;13.93
60936;BMP280;46804;51.786;19.520;2023-04-24T20:21:28;157656.34;;;13.56
60936;BMP280;46804;51.786;19.520;2023-04-24T20:25:28;157689.78;;;13.68
60936;BMP280;46804;51.786;19.520;2023-04-24T20:29:29;157624.19;;;13.43
60936;BMP280;46804;51.786;19.520;2023-04-24T20:33:30;157593.34;;;13.31
60936;BMP280;46804;51.786;19.520;2023-04-24T20:37:31;157586.91;;;13.29
60936;BMP280;46804;51.786;19.520;2023-04-24T20:41:32;157620.31;;;13.42
60936;BMP280;46804;51.786;19.520;2023-04-24T20:45:34;157577.88;;;13.25
60936;BMP280;46804;51.786;19.520;2023-04-24T20:49:35;157592.00;;;13.31
60936;BMP280;46804;51.786;19.520;2023-04-24T20:53:36;157558.63;;;13.18
60936;BMP280;46804;51.786;19.520;2023-04-24T20:57:37;157529.00;;;13.07
60936;BMP280;46804;51.786;19.520;2023-04-24T21:01:37;157568.88;;;13.22
60936;BMP280;46804;51.786;19.520;2023-04-24T21:05:38;157562.44;;;13.20
60936;BMP280;46804;51.786;19.520;2023-04-24T21:09:39;157575.34;;;13.24
60936;BMP280;46804;51.786;19.520;2023-04-24T21:13:40;157579.16;;;13.26
60936;BMP280;46804;51.786;19.520;2023-04-24T21:17:40;157566.31;;;13.21
60936;BMP280;46804;51.786;19.520;2023-04-24T21:21:41;157543.19;;;13.12
60936;BMP280;46804;51.786;19.520;2023-04-24T21:25:41;157538.03;;;13.10
60936;BMP280;46804;51.786;19.520;2023-04-24T21:29:42;157503.31;;;12.97
60936;BMP280;46804;51.786;19.520;2023-04-24T21:33:43;157550.88;;;13.15
60936;BMP280;46804;51.786;19.520;2023-04-24T21:37:43;157532.88;;;13.08
60936;BMP280;46804;51.786;19.520;2023-04-24T21:41:44;157489.16;;;12.91
60936;BMP280;46804;51.786;19.520;2023-04-24T21:45:46;157453.19;;;12.78
60936;BMP280;46804;51.786;19.520;2023-04-24T21:49:47;157477.59;;;12.87
60936;BMP280;46804;51.786;19.520;2023-04-24T21:53:47;157420.97;;;12.65
60936;BMP280;46804;51.786;19.520;2023-04-24T21:57:48;157424.84;;;12.67
60936;BMP280;46804;51.786;19.520;2023-04-24T22:01:49;157354.19;;;12.40
60936;BMP280;46804;51.786;19.520;2023-04-24T22:05:50;157401.72;;;12.58
60936;BMP280;46804;51.786;19.520;2023-04-24T22:09:51;157363.16;;;12.43
60936;BMP280;46804;51.786;19.520;2023-04-24T22:13:52;157365.75;;;12.44
60936;BMP280;46804;51.786;19.520;2023-04-24T22:17:53;157358.00;;;12.41
60936;BMP280;46804;51.786;19.520;2023-04-24T22:21:54;157383.75;;;12.51
60936;BMP280;46804;51.786;19.520;2023-04-24T22:25:55;157426.13;;;12.67
60936;BMP280;46804;51.786;19.520;2023-04-24T22:29:56;157376.00;;;12.48
60936;BMP280;46804;51.786;19.520;2023-04-24T22:33:57;157438.97;;;12.72